createdAt,value
2019-01-15T00:00:23.974Z,5.40
2019-01-15T00:02:53.613Z,5.40
2019-01-15T00:05:22.991Z,5.50
2019-01-15T00:07:52.848Z,5.50
2019-01-15T00:10:22.215Z,5.50
2019-01-15T00:12:51.583Z,5.50
2019-01-15T00:15:21.041Z,5.60
2019-01-15T00:17:50.403Z,5.60
2019-01-15T00:20:19.782Z,5.60
2019-01-15T00:22:49.616Z,5.60
2019-01-15T00:25:18.996Z,5.70
2019-01-15T00:27:48.366Z,5.70
2019-01-15T00:30:19.467Z,5.70
2019-01-15T00:32:48.838Z,5.70
2019-01-15T00:35:18.206Z,5.80
2019-01-15T00:37:47.590Z,5.80
2019-01-15T00:40:18.769Z,5.80
2019-01-15T00:42:48.135Z,5.90
2019-01-15T00:45:17.617Z,5.90
2019-01-15T00:47:46.982Z,5.90
2019-01-15T00:50:16.924Z,5.90
2019-01-15T00:52:46.691Z,5.90
2019-01-15T00:55:16.917Z,5.90
2019-01-15T00:57:46.615Z,5.90
2019-01-15T01:00:19.792Z,5.90
2019-01-15T01:02:49.471Z,5.90
2019-01-15T01:05:20.235Z,5.90
2019-01-15T01:07:50.016Z,5.90
2019-01-15T01:10:19.556Z,5.90
2019-01-15T01:12:48.924Z,5.90
2019-01-15T01:15:18.692Z,5.90
2019-01-15T01:17:48.402Z,5.80
2019-01-15T01:20:21.691Z,5.90
2019-01-15T01:22:51.350Z,5.90
2019-01-15T01:25:21.132Z,5.90
2019-01-15T01:27:50.498Z,5.90
2019-01-15T01:30:21.910Z,5.90
2019-01-15T01:32:51.617Z,5.90
2019-01-15T01:35:21.000Z,5.80
2019-01-15T01:37:50.547Z,5.90
2019-01-15T01:40:20.355Z,5.90
2019-01-15T01:42:49.714Z,5.90
2019-01-15T01:45:19.576Z,5.90
2019-01-15T01:47:48.937Z,5.90
2019-01-15T01:50:18.313Z,5.90
2019-01-15T01:52:47.706Z,6.00
2019-01-15T01:55:17.143Z,6.00
2019-01-15T01:57:46.521Z,6.00
2019-01-15T02:00:20.593Z,6.00
2019-01-15T02:02:50.207Z,6.00
2019-01-15T02:05:19.571Z,6.00
2019-01-15T02:07:50.418Z,6.00
2019-01-15T02:10:19.863Z,6.00
2019-01-15T02:12:49.499Z,6.00
2019-01-15T02:15:21.780Z,6.00
2019-01-15T02:17:51.132Z,6.00
2019-01-15T02:20:21.310Z,6.00
2019-01-15T02:22:51.135Z,6.00
2019-01-15T02:25:20.615Z,6.00
2019-01-15T02:27:51.418Z,6.00
2019-01-15T02:30:24.234Z,6.10
2019-01-15T02:32:53.605Z,6.10
2019-01-15T02:35:22.974Z,6.10
2019-01-15T02:37:52.387Z,6.10
2019-01-15T02:40:22.042Z,6.10
2019-01-15T02:42:51.757Z,6.20
2019-01-15T02:45:21.516Z,6.20
2019-01-15T02:47:50.944Z,6.30
2019-01-15T02:50:21.356Z,6.30
2019-01-15T02:52:51.049Z,6.30
2019-01-15T02:55:20.470Z,6.40
2019-01-15T02:57:49.791Z,6.40
2019-01-15T03:00:24.388Z,6.40
2019-01-15T03:02:53.819Z,6.40
2019-01-15T03:05:23.258Z,6.50
2019-01-15T03:07:53.099Z,6.50
2019-01-15T03:10:23.297Z,6.50
2019-01-15T03:12:56.798Z,6.50
2019-01-15T03:15:24.313Z,6.50
2019-01-15T03:17:53.767Z,6.50
2019-01-15T03:20:23.205Z,6.40
2019-01-15T03:22:56.025Z,6.40
2019-01-15T03:25:25.401Z,6.40
2019-01-15T03:27:54.775Z,6.30
2019-01-15T03:30:25.135Z,6.30
2019-01-15T03:32:54.501Z,6.20
2019-01-15T03:35:24.133Z,6.20
2019-01-15T03:37:53.702Z,6.20
2019-01-15T03:40:25.087Z,6.10
2019-01-15T03:43:02.909Z,6.10
2019-01-15T03:45:26.224Z,6.10
2019-01-15T03:47:55.585Z,6.00
2019-01-15T03:50:24.963Z,6.00
2019-01-15T03:52:54.320Z,6.00
2019-01-15T03:55:23.761Z,6.00
2019-01-15T03:57:53.138Z,6.00
2019-01-15T04:00:23.945Z,6.00
2019-01-15T04:02:56.153Z,6.00
2019-01-15T04:05:25.507Z,6.00
2019-01-15T04:07:56.793Z,6.00
2019-01-15T04:10:26.961Z,6.00
2019-01-15T04:12:56.272Z,6.10
2019-01-15T04:15:25.755Z,6.10
2019-01-15T04:17:55.485Z,6.10
2019-01-15T04:20:24.869Z,6.10
2019-01-15T04:22:54.252Z,6.20
2019-01-15T04:25:23.627Z,6.20
2019-01-15T04:27:52.995Z,6.20
2019-01-15T04:30:23.302Z,6.20
2019-01-15T04:32:53.147Z,6.20
2019-01-15T04:35:22.544Z,6.30
2019-01-15T04:37:51.941Z,6.20
2019-01-15T04:40:21.575Z,6.30
2019-01-15T04:42:51.080Z,6.30
2019-01-15T04:45:21.838Z,6.30
2019-01-15T04:47:51.241Z,6.30
2019-01-15T04:50:20.611Z,6.30
2019-01-15T04:52:51.991Z,6.30
2019-01-15T04:55:21.367Z,6.40
2019-01-15T04:57:50.735Z,6.40
2019-01-15T05:00:23.822Z,6.40
2019-01-15T05:02:54.252Z,6.50
2019-01-15T05:05:23.625Z,6.50
2019-01-15T05:07:53.625Z,6.50
2019-01-15T05:10:23.001Z,6.50
2019-01-15T05:12:52.367Z,6.50
2019-01-15T05:15:21.769Z,6.60
2019-01-15T05:17:51.145Z,6.60
2019-01-15T05:20:20.785Z,6.60
2019-01-15T05:22:50.182Z,6.60
2019-01-15T05:25:23.784Z,6.70
2019-01-15T05:27:53.170Z,6.70
2019-01-15T05:30:28.286Z,6.70
2019-01-15T05:32:57.663Z,6.70
2019-01-15T05:35:27.162Z,6.80
2019-01-15T05:37:56.645Z,6.80
2019-01-15T05:40:26.008Z,6.90
2019-01-15T05:42:55.470Z,6.90
2019-01-15T05:45:26.513Z,6.90
2019-01-15T05:47:57.514Z,6.90
2019-01-15T05:50:47.479Z,6.90
2019-01-15T05:53:16.851Z,7.00
2019-01-15T05:55:46.264Z,7.00
2019-01-15T05:58:15.654Z,7.00
2019-01-15T06:00:45.026Z,7.00
2019-01-15T06:03:14.405Z,7.00
2019-01-15T06:05:43.785Z,7.10
2019-01-15T06:08:13.165Z,7.10
2019-01-15T06:10:42.538Z,7.10
2019-01-15T06:13:12.296Z,7.10
2019-01-15T06:15:41.677Z,7.20
2019-01-15T06:18:11.228Z,7.20
2019-01-15T06:20:40.629Z,7.20
2019-01-15T06:23:09.998Z,7.20
2019-01-15T06:25:39.372Z,7.20
2019-01-15T06:28:08.765Z,7.30
2019-01-15T06:30:38.141Z,7.30
2019-01-15T06:33:07.517Z,7.30
2019-01-15T06:35:37.490Z,7.30
2019-01-15T06:38:07.115Z,7.30
2019-01-15T06:40:36.576Z,7.40
2019-01-15T06:43:05.951Z,7.40
2019-01-15T06:45:35.321Z,7.40
2019-01-15T06:48:05.425Z,7.40
2019-01-15T06:50:34.841Z,7.40
2019-01-15T06:53:04.589Z,7.40
2019-01-15T06:55:34.040Z,7.50
2019-01-15T06:58:03.975Z,7.50
2019-01-15T07:00:33.423Z,7.50
2019-01-15T07:03:04.155Z,7.50
2019-01-15T07:05:33.580Z,7.50
2019-01-15T07:08:03.239Z,7.60
2019-01-15T07:10:40.273Z,7.60
2019-01-15T07:13:10.010Z,7.60
2019-01-15T07:15:39.456Z,7.60
2019-01-15T07:18:08.835Z,7.60
2019-01-15T07:20:38.238Z,7.60
2019-01-15T07:23:07.611Z,7.60
2019-01-15T07:25:37.001Z,7.60
2019-01-15T07:28:06.476Z,7.60
2019-01-15T07:30:40.753Z,7.60
2019-01-15T07:33:10.274Z,7.60
2019-01-15T07:35:40.215Z,7.60
2019-01-15T07:38:09.591Z,7.60
2019-01-15T07:40:39.333Z,7.60
2019-01-15T07:43:08.721Z,7.60
2019-01-15T07:45:38.116Z,7.60
2019-01-15T07:48:07.581Z,7.60
2019-01-15T07:50:36.964Z,7.60
2019-01-15T07:53:06.628Z,7.70
2019-01-15T07:55:36.056Z,7.70
2019-01-15T07:58:06.125Z,7.70
2019-01-15T08:00:35.521Z,7.70
2019-01-15T08:03:05.672Z,7.70
2019-01-15T08:05:35.057Z,7.70
2019-01-15T08:08:04.679Z,7.80
2019-01-15T08:10:34.728Z,7.80
2019-01-15T08:13:04.549Z,7.80
2019-01-15T08:15:33.936Z,7.80
2019-01-15T08:18:03.385Z,7.80
2019-01-15T08:20:33.062Z,7.80
2019-01-15T08:23:02.718Z,7.80
2019-01-15T08:25:32.094Z,7.80
2019-01-15T08:28:01.512Z,7.80
2019-01-15T08:30:36.915Z,7.80
2019-01-15T08:33:06.540Z,7.80
2019-01-15T08:35:36.367Z,7.80
2019-01-15T08:38:06.109Z,7.70
2019-01-15T08:40:35.475Z,7.70
2019-01-15T08:43:05.339Z,7.70
2019-01-15T08:45:34.724Z,7.70
2019-01-15T08:48:12.169Z,7.80
2019-01-15T08:50:42.087Z,7.80
2019-01-15T08:53:12.739Z,7.80
2019-01-15T08:55:42.116Z,7.80
2019-01-15T08:58:11.493Z,7.80
2019-01-15T09:00:40.866Z,7.80
2019-01-15T09:03:10.248Z,7.90
2019-01-15T09:05:39.672Z,7.90
2019-01-15T09:08:09.110Z,7.90
2019-01-15T09:10:38.493Z,7.90
2019-01-15T09:13:08.343Z,7.90
2019-01-15T09:15:37.999Z,7.90
2019-01-15T09:18:07.398Z,7.90
2019-01-15T09:20:37.111Z,7.90
2019-01-15T09:23:06.478Z,7.90
2019-01-15T09:25:35.863Z,7.90
2019-01-15T09:28:05.333Z,7.90
2019-01-15T09:30:34.712Z,7.80
2019-01-15T09:33:04.834Z,7.80
2019-01-15T09:35:34.603Z,7.80
2019-01-15T09:38:05.184Z,7.70
2019-01-15T09:40:34.562Z,7.70
2019-01-15T09:43:03.973Z,7.70
2019-01-15T09:45:33.828Z,7.70
2019-01-15T09:48:07.895Z,7.70
2019-01-15T09:50:37.841Z,7.70
2019-01-15T09:53:07.854Z,7.70
2019-01-15T09:55:37.229Z,7.70
2019-01-15T09:58:06.684Z,7.70
2019-01-15T10:00:36.074Z,7.70
2019-01-15T10:03:06.166Z,7.70
2019-01-15T10:05:35.565Z,7.70
2019-01-15T10:08:05.317Z,7.70
2019-01-15T10:10:34.697Z,7.70
2019-01-15T10:13:04.868Z,7.70
2019-01-15T10:15:34.532Z,7.80
2019-01-15T10:18:04.287Z,7.80
2019-01-15T10:20:33.695Z,7.80
2019-01-15T10:23:03.140Z,7.80
2019-01-15T10:25:32.801Z,7.80
2019-01-15T10:28:02.464Z,7.80
2019-01-15T10:30:42.687Z,7.90
2019-01-15T10:33:25.690Z,7.90
2019-01-15T10:35:54.613Z,7.90
2019-01-15T10:38:27.202Z,7.90
2019-01-15T10:40:57.558Z,7.90
2019-01-15T10:43:27.951Z,7.90
2019-01-15T10:45:57.614Z,8.00
2019-01-15T10:48:27.829Z,8.00
2019-01-15T10:50:57.287Z,8.10
2019-01-15T10:53:28.001Z,8.10
2019-01-15T10:55:57.393Z,8.10
2019-01-15T10:58:26.791Z,8.20
2019-01-15T11:00:56.171Z,8.20
2019-01-15T11:03:25.561Z,8.20
2019-01-15T11:05:54.934Z,8.30
2019-01-15T11:08:24.307Z,8.30
2019-01-15T11:10:54.209Z,8.40
2019-01-15T11:13:23.594Z,8.50
2019-01-15T11:15:52.970Z,8.50
2019-01-15T11:18:22.678Z,8.60
2019-01-15T11:20:53.113Z,8.60
2019-01-15T11:23:22.490Z,8.60
2019-01-15T11:25:51.914Z,8.70
2019-01-15T11:28:21.303Z,8.70
2019-01-15T11:30:50.678Z,8.70
2019-01-15T11:33:20.482Z,8.70
2019-01-15T11:35:49.853Z,8.70
2019-01-15T11:38:19.236Z,8.80
2019-01-15T11:40:48.634Z,8.80
2019-01-15T11:43:18.006Z,8.80
2019-01-15T11:45:47.405Z,8.80
2019-01-15T11:48:16.778Z,8.80
2019-01-15T11:50:46.162Z,8.80
2019-01-15T11:53:15.531Z,8.80
2019-01-15T11:55:45.197Z,8.80
2019-01-15T11:58:14.575Z,8.80
2019-01-15T12:00:45.597Z,8.80
2019-01-15T12:03:28.505Z,8.80
2019-01-15T12:06:05.804Z,8.80
2019-01-15T12:08:45.770Z,8.80
2019-01-15T12:11:30.004Z,8.80
2019-01-15T12:14:17.235Z,8.80
2019-01-15T12:16:48.252Z,8.80
2019-01-15T12:19:19.285Z,8.80
2019-01-15T12:22:06.426Z,8.80
2019-01-15T12:24:53.659Z,8.80
2019-01-15T12:27:24.697Z,8.80
2019-01-15T12:29:58.449Z,8.80
2019-01-15T12:32:38.699Z,8.80
2019-01-15T12:35:26.633Z,8.80
2019-01-15T12:37:57.679Z,8.80
2019-01-15T12:40:34.866Z,8.80
2019-01-15T12:43:22.334Z,8.80
2019-01-15T12:45:53.439Z,8.80
2019-01-15T12:48:30.525Z,8.80
2019-01-15T12:51:17.682Z,8.80
2019-01-15T12:53:54.617Z,8.80
2019-01-15T12:56:25.636Z,8.90
2019-01-15T12:58:59.378Z,8.80
2019-01-15T13:01:46.507Z,8.80
2019-01-15T13:04:17.519Z,8.90
2019-01-15T13:07:05.260Z,8.90
2019-01-15T13:09:42.192Z,8.90
2019-01-15T13:12:16.035Z,8.90
2019-01-15T13:14:52.857Z,8.90
2019-01-15T13:17:41.846Z,8.90
2019-01-15T13:20:18.145Z,8.90
2019-01-15T13:22:55.238Z,8.90
2019-01-15T13:25:41.375Z,8.90
2019-01-15T13:28:27.978Z,8.90
2019-01-15T13:31:01.804Z,8.90
2019-01-15T13:33:36.972Z,8.90
2019-01-15T13:36:25.138Z,8.90
2019-01-15T13:39:11.154Z,9.00
2019-01-15T13:41:59.050Z,9.00
2019-01-15T13:44:46.279Z,9.00
2019-01-15T13:47:17.336Z,9.00
2019-01-15T13:50:03.410Z,9.00
2019-01-15T13:52:50.544Z,9.00
2019-01-15T13:55:24.735Z,9.00
2019-01-15T13:58:01.922Z,9.00
2019-01-15T14:00:38.644Z,9.00
2019-01-15T14:03:15.103Z,9.00
2019-01-15T14:06:02.536Z,9.00
2019-01-15T14:08:46.469Z,9.00
2019-01-15T14:11:32.849Z,9.00
2019-01-15T14:14:04.547Z,9.00
2019-01-15T14:16:36.015Z,9.00
2019-01-15T14:19:19.974Z,9.00
2019-01-15T14:22:00.265Z,9.00
2019-01-15T14:24:31.290Z,9.00
2019-01-15T14:27:02.311Z,9.00
2019-01-15T14:29:45.964Z,9.00
2019-01-15T14:32:23.225Z,9.00
2019-01-15T14:34:54.562Z,9.10
2019-01-15T14:37:41.757Z,9.10
2019-01-15T14:40:17.141Z,9.10
2019-01-15T14:43:04.586Z,9.10
2019-01-15T14:45:56.445Z,9.10
2019-01-15T14:48:26.704Z,9.10
2019-01-15T14:51:00.710Z,9.10
2019-01-15T14:53:31.732Z,9.10
2019-01-15T14:56:05.783Z,9.10
2019-01-15T14:58:53.584Z,9.10
2019-01-15T15:01:24.602Z,9.20
2019-01-15T15:03:55.619Z,9.20
2019-01-15T15:06:26.864Z,9.20
2019-01-15T15:08:57.900Z,9.20
2019-01-15T15:11:37.713Z,9.20
2019-01-15T15:14:08.737Z,9.30
2019-01-15T15:16:39.750Z,9.30
2019-01-15T15:19:27.282Z,9.30
2019-01-15T15:22:04.408Z,9.30
2019-01-15T15:24:47.976Z,9.40
2019-01-15T15:27:21.905Z,9.40
2019-01-15T15:29:52.932Z,9.40
2019-01-15T15:32:26.391Z,9.40
2019-01-15T15:35:13.503Z,9.40
2019-01-15T15:37:50.065Z,9.40
2019-01-15T15:40:24.095Z,9.40
2019-01-15T15:43:11.866Z,9.40
2019-01-15T15:45:51.933Z,9.50
2019-01-15T15:48:22.969Z,9.50
2019-01-15T15:50:54.000Z,9.50
2019-01-15T15:53:34.088Z,9.50
2019-01-15T15:56:13.748Z,9.50
2019-01-15T15:58:51.547Z,9.50
2019-01-15T16:01:25.867Z,9.60
2019-01-15T16:04:13.300Z,9.60
2019-01-15T16:06:53.198Z,9.60
2019-01-15T16:09:24.236Z,9.60
2019-01-15T16:11:55.264Z,9.60
2019-01-15T16:14:26.286Z,9.60
2019-01-15T16:17:00.836Z,9.70
2019-01-15T16:19:37.797Z,9.60
2019-01-15T16:22:23.854Z,9.70
2019-01-15T16:24:57.478Z,9.70
2019-01-15T16:27:44.850Z,9.70
2019-01-15T16:30:37.078Z,9.70
2019-01-15T16:33:23.239Z,9.70
2019-01-15T16:35:57.055Z,9.70
2019-01-15T16:38:44.457Z,9.70
2019-01-15T16:41:15.479Z,9.70
2019-01-15T16:43:58.763Z,9.70
2019-01-15T16:46:29.789Z,9.70
2019-01-15T16:49:17.653Z,9.70
2019-01-15T16:51:48.676Z,9.80
2019-01-15T16:54:22.631Z,9.80
2019-01-15T16:56:59.664Z,9.80
2019-01-15T16:59:46.496Z,9.80
2019-01-15T17:02:27.964Z,9.80
2019-01-15T17:04:59.440Z,9.80
2019-01-15T17:07:36.859Z,9.80
2019-01-15T17:10:24.939Z,9.80
2019-01-15T17:12:55.981Z,9.90
2019-01-15T17:15:27.005Z,9.90
2019-01-15T17:18:00.775Z,10.00
2019-01-15T17:20:34.308Z,10.00
2019-01-15T17:23:11.375Z,10.00
2019-01-15T17:25:51.901Z,10.00
2019-01-15T17:28:22.929Z,10.00
2019-01-15T17:30:59.836Z,10.00
2019-01-15T17:33:40.192Z,10.00
2019-01-15T17:36:17.046Z,10.00
2019-01-15T17:38:48.462Z,10.10
2019-01-15T17:41:22.388Z,10.00
2019-01-15T17:43:56.337Z,10.00
2019-01-15T17:46:44.067Z,10.00
2019-01-15T17:49:17.750Z,10.00
2019-01-15T17:52:05.192Z,10.10
2019-01-15T17:54:48.245Z,10.10
2019-01-15T17:57:24.768Z,10.10
2019-01-15T17:59:55.799Z,10.10
2019-01-15T18:02:39.057Z,10.20
2019-01-15T18:05:16.778Z,10.20
2019-01-15T18:07:50.793Z,10.20
2019-01-15T18:10:42.650Z,10.30
2019-01-15T18:13:30.175Z,10.30
2019-01-15T18:16:03.952Z,10.30
2019-01-15T18:18:44.526Z,10.30
2019-01-15T18:21:27.614Z,10.30
2019-01-15T18:24:07.274Z,10.30
2019-01-15T18:26:41.068Z,10.30
2019-01-15T18:29:12.089Z,10.40
2019-01-15T18:31:43.129Z,10.30
2019-01-15T18:34:16.972Z,10.40
2019-01-15T18:36:48.000Z,10.40
2019-01-15T18:39:37.368Z,10.40
2019-01-15T18:42:24.727Z,10.40
2019-01-15T18:44:58.546Z,10.40
2019-01-15T18:47:44.802Z,10.40
2019-01-15T18:50:15.916Z,10.40
2019-01-15T18:52:49.882Z,10.40
2019-01-15T18:55:20.920Z,10.40
2019-01-15T18:58:05.141Z,10.40
2019-01-15T19:00:39.083Z,10.40
2019-01-15T19:03:12.810Z,10.40
2019-01-15T19:05:49.946Z,10.40
2019-01-15T19:08:20.980Z,10.50
2019-01-15T19:11:08.872Z,10.50
2019-01-15T19:13:42.626Z,10.50
2019-01-15T19:16:16.596Z,10.50
2019-01-15T19:18:50.612Z,10.50
2019-01-15T19:21:21.635Z,10.60
2019-01-15T19:24:08.704Z,10.60
2019-01-15T19:26:45.477Z,10.60
2019-01-15T19:29:19.376Z,10.60
2019-01-15T19:32:06.759Z,10.60
2019-01-15T19:34:46.778Z,10.70
2019-01-15T19:37:17.822Z,10.70
2019-01-15T19:39:48.838Z,10.70
2019-01-15T19:42:29.063Z,10.70
2019-01-15T19:45:06.075Z,10.70
2019-01-15T19:47:41.824Z,10.70
2019-01-15T19:50:23.026Z,10.70
2019-01-15T19:52:54.083Z,10.70
2019-01-15T19:55:25.106Z,10.70
2019-01-15T19:57:56.126Z,10.70
2019-01-15T20:00:30.182Z,10.70
2019-01-15T20:03:10.112Z,10.70
2019-01-15T20:05:47.179Z,10.70
2019-01-15T20:08:21.128Z,10.70
2019-01-15T20:10:52.154Z,10.70
2019-01-15T20:13:35.860Z,10.70
2019-01-15T20:16:09.704Z,10.70
2019-01-15T20:18:56.596Z,10.70
2019-01-15T20:21:27.621Z,10.70
2019-01-15T20:24:10.942Z,10.70
2019-01-15T20:26:47.951Z,10.70
2019-01-15T20:29:22.023Z,10.70
2019-01-15T20:31:59.084Z,10.70
2019-01-15T20:34:46.460Z,10.70
2019-01-15T20:37:29.661Z,10.70
2019-01-15T20:40:01.251Z,10.70
2019-01-15T20:42:48.072Z,10.70
2019-01-15T20:45:21.756Z,10.70
2019-01-15T20:48:01.454Z,10.70
2019-01-15T20:50:44.463Z,10.60
2019-01-15T20:53:18.593Z,10.60
2019-01-15T20:56:04.974Z,10.60
2019-01-15T20:58:35.982Z,10.60
2019-01-15T21:01:07.079Z,10.60
2019-01-15T21:03:56.220Z,10.60
2019-01-15T21:06:27.238Z,10.60
2019-01-15T21:09:00.654Z,10.60
2019-01-15T21:11:31.970Z,10.60
2019-01-15T21:14:18.050Z,10.60
2019-01-15T21:16:52.281Z,10.60
2019-01-15T21:19:41.679Z,10.60
2019-01-15T21:22:30.608Z,10.60
2019-01-15T21:25:18.204Z,10.60
2019-01-15T21:27:58.746Z,10.60
2019-01-15T21:30:50.508Z,10.60
2019-01-15T21:33:22.035Z,10.50
2019-01-15T21:36:05.309Z,10.50
2019-01-15T21:38:48.194Z,10.50
2019-01-15T21:41:28.322Z,10.50
2019-01-15T21:44:11.786Z,10.50
2019-01-15T21:46:42.807Z,10.60
2019-01-15T21:49:29.883Z,10.60
2019-01-15T21:52:03.537Z,10.60
2019-01-15T21:54:37.271Z,10.60
2019-01-15T21:57:08.328Z,10.60
2019-01-15T21:59:48.317Z,10.60
2019-01-15T22:02:25.559Z,10.60
2019-01-15T22:05:02.534Z,10.60
2019-01-15T22:07:50.098Z,10.60
2019-01-15T22:10:33.072Z,10.60
2019-01-15T22:13:09.558Z,10.60
2019-01-15T22:15:46.289Z,10.60
2019-01-15T22:18:17.739Z,10.60
2019-01-15T22:20:58.327Z,10.60
2019-01-15T22:23:35.046Z,10.60
2019-01-15T22:26:14.896Z,10.60
2019-01-15T22:28:48.890Z,10.60
2019-01-15T22:31:34.892Z,10.60
2019-01-15T22:34:18.519Z,10.60
2019-01-15T22:36:52.439Z,10.60
2019-01-15T22:39:38.534Z,10.60
2019-01-15T22:42:09.593Z,10.60
2019-01-15T22:44:40.605Z,10.60
2019-01-15T22:47:26.958Z,10.60
2019-01-15T22:50:06.755Z,10.60
2019-01-15T22:52:38.079Z,10.60
2019-01-15T22:55:10.299Z,10.60
2019-01-15T22:57:53.293Z,10.60
2019-01-15T23:00:46.641Z,10.60
2019-01-15T23:03:20.328Z,10.60
2019-01-15T23:06:03.362Z,10.60
2019-01-15T23:08:52.972Z,10.60
2019-01-15T23:11:26.687Z,10.60
2019-01-15T23:14:03.479Z,10.70
2019-01-15T23:16:34.505Z,10.70
2019-01-15T23:19:20.715Z,10.70
2019-01-15T23:22:00.949Z,10.70
2019-01-15T23:24:35.557Z,10.70
2019-01-15T23:27:06.576Z,10.70
2019-01-15T23:29:46.607Z,10.70
2019-01-15T23:32:17.625Z,10.70
2019-01-15T23:35:04.943Z,10.80
2019-01-15T23:37:35.966Z,10.80
2019-01-15T23:40:09.400Z,10.80
2019-01-15T23:42:56.884Z,10.80
2019-01-15T23:45:27.905Z,10.90
2019-01-15T23:48:13.995Z,10.80
2019-01-15T23:50:57.537Z,10.90
2019-01-15T23:53:28.566Z,10.90
2019-01-15T23:56:01.995Z,10.90
2019-01-15T23:58:36.151Z,10.90
